createdAt,value
2022-10-21T00:00:46.041Z,7.11
2022-10-21T00:03:36.857Z,8.32
2022-10-21T00:06:07.983Z,9.36
2022-10-21T00:08:39.282Z,9.90
2022-10-21T00:11:10.617Z,10.27
2022-10-21T00:13:41.402Z,10.26
2022-10-21T00:16:13.369Z,9.23
2022-10-21T00:18:45.121Z,8.09
2022-10-21T00:21:18.025Z,7.26
2022-10-21T00:23:49.931Z,6.93
2022-10-21T00:26:21.346Z,8.03
2022-10-21T00:28:55.101Z,9.10
2022-10-21T00:31:26.197Z,9.71
2022-10-21T00:33:57.784Z,10.08
2022-10-21T00:36:32.159Z,9.97
2022-10-21T00:39:03.292Z,8.72
2022-10-21T00:41:33.824Z,7.63
2022-10-21T00:44:06.285Z,7.57
2022-10-21T00:46:39.537Z,8.52
2022-10-21T00:49:15.663Z,9.34
2022-10-21T00:51:47.393Z,9.89
2022-10-21T00:54:18.596Z,9.79
2022-10-21T00:56:49.680Z,8.57
2022-10-21T00:59:20.820Z,7.44
2022-10-21T01:01:51.464Z,7.30
2022-10-21T01:04:22.430Z,8.29
2022-10-21T01:06:53.233Z,9.14
2022-10-21T01:09:26.021Z,9.70
2022-10-21T01:11:57.528Z,9.78
2022-10-21T01:14:38.940Z,8.51
2022-10-21T01:17:26.566Z,7.27
2022-10-21T01:20:19.945Z,6.75
2022-10-21T01:22:57.994Z,7.77
2022-10-21T01:25:42.082Z,8.64
2022-10-21T01:28:17.629Z,9.34
2022-10-21T01:30:49.893Z,9.70
2022-10-21T01:33:30.508Z,9.72
2022-10-21T01:36:06.792Z,8.50
2022-10-21T01:38:42.647Z,7.39
2022-10-21T01:41:14.928Z,6.97
2022-10-21T01:43:49.565Z,7.93
2022-10-21T01:46:23.990Z,8.71
2022-10-21T01:48:56.667Z,9.44
2022-10-21T01:51:29.039Z,9.90
2022-10-21T01:54:03.208Z,9.86
2022-10-21T01:56:34.607Z,8.67
2022-10-21T01:59:06.463Z,7.59
2022-10-21T02:01:38.512Z,6.81
2022-10-21T02:04:10.304Z,6.47
2022-10-21T02:06:40.908Z,7.49
2022-10-21T02:09:11.609Z,8.54
2022-10-21T02:11:43.620Z,9.25
2022-10-21T02:14:16.667Z,9.77
2022-10-21T02:16:47.945Z,9.85
2022-10-21T02:19:19.384Z,8.85
2022-10-21T02:21:53.072Z,7.75
2022-10-21T02:24:22.191Z,6.90
2022-10-21T02:26:52.805Z,6.25
2022-10-21T02:29:24.508Z,6.04
2022-10-21T02:32:01.585Z,7.23
2022-10-21T02:34:36.382Z,8.50
2022-10-21T02:37:10.276Z,9.30
2022-10-21T02:39:44.233Z,9.66
2022-10-21T02:42:17.293Z,10.11
2022-10-21T02:44:48.048Z,9.98
2022-10-21T02:47:18.860Z,8.80
2022-10-21T02:49:49.363Z,7.74
2022-10-21T02:52:20.092Z,6.94
2022-10-21T02:54:50.800Z,6.60
2022-10-21T02:57:21.483Z,7.62
2022-10-21T02:59:51.808Z,8.69
2022-10-21T03:02:22.337Z,9.37
2022-10-21T03:04:53.169Z,9.86
2022-10-21T03:07:23.892Z,9.92
2022-10-21T03:09:54.463Z,8.80
2022-10-21T03:12:25.273Z,7.58
2022-10-21T03:14:56.015Z,6.69
2022-10-21T03:17:26.763Z,6.32
2022-10-21T03:19:57.505Z,7.39
2022-10-21T03:22:28.290Z,8.44
2022-10-21T03:24:59.451Z,9.13
2022-10-21T03:30:07.794Z,9.64
2022-10-21T03:32:38.815Z,8.51
2022-10-21T03:35:10.064Z,7.37
2022-10-21T03:37:40.789Z,6.50
2022-10-21T03:40:12.499Z,6.97
2022-10-21T03:42:43.279Z,8.07
2022-10-21T03:45:14.254Z,8.73
2022-10-21T03:47:44.783Z,9.28
2022-10-21T03:50:18.238Z,9.68
2022-10-21T03:52:51.956Z,9.07
2022-10-21T03:55:24.452Z,7.80
2022-10-21T03:57:55.258Z,6.82
2022-10-21T04:00:28.296Z,6.44
2022-10-21T04:03:01.555Z,7.57
2022-10-21T04:05:32.045Z,8.64
2022-10-21T04:08:02.741Z,9.32
2022-10-21T04:10:33.285Z,9.46
2022-10-21T04:13:04.159Z,8.34
2022-10-21T04:15:35.506Z,7.20
2022-10-21T04:18:06.336Z,6.32
2022-10-21T04:20:36.850Z,5.96
2022-10-21T04:23:07.579Z,7.03
2022-10-21T04:25:38.234Z,8.17
2022-10-21T04:28:09.157Z,8.90
2022-10-21T04:30:39.715Z,9.34
2022-10-21T04:33:10.540Z,9.39
2022-10-21T04:35:41.719Z,8.27
2022-10-21T04:38:12.515Z,7.07
2022-10-21T04:40:43.357Z,6.18
2022-10-21T04:43:14.067Z,5.85
2022-10-21T04:45:44.680Z,6.79
2022-10-21T04:48:15.125Z,7.98
2022-10-21T04:50:45.830Z,8.71
2022-10-21T04:53:16.713Z,9.23
2022-10-21T04:55:47.339Z,9.27
2022-10-21T04:58:20.943Z,8.08
2022-10-21T05:00:53.039Z,6.94
2022-10-21T05:03:23.837Z,6.07
2022-10-21T05:05:54.401Z,5.72
2022-10-21T05:08:25.057Z,6.80
2022-10-21T05:11:00.542Z,7.91
2022-10-21T05:13:31.251Z,8.59
2022-10-21T05:16:02.858Z,9.11
2022-10-21T05:18:33.564Z,9.44
2022-10-21T05:21:04.331Z,8.84
2022-10-21T05:23:35.299Z,7.60
2022-10-21T05:26:06.085Z,6.64
2022-10-21T05:28:37.314Z,6.33
2022-10-21T05:31:08.078Z,7.49
2022-10-21T05:33:38.690Z,8.66
2022-10-21T05:36:09.904Z,8.50
2022-10-21T05:38:41.444Z,6.73
2022-10-21T05:41:13.068Z,5.87
2022-10-21T05:43:44.067Z,6.75
2022-10-21T05:46:14.619Z,7.97
2022-10-21T05:48:45.372Z,8.45
2022-10-21T05:51:16.027Z,8.76
2022-10-21T05:53:46.970Z,7.83
2022-10-21T05:56:17.434Z,6.55
2022-10-21T05:58:48.044Z,6.86
2022-10-21T06:01:18.762Z,7.93
2022-10-21T06:03:50.038Z,8.64
2022-10-21T06:06:20.574Z,8.86
2022-10-21T06:08:51.249Z,7.82
2022-10-21T06:11:21.927Z,6.66
2022-10-21T06:13:52.541Z,6.07
2022-10-21T06:16:23.097Z,7.13
2022-10-21T06:18:53.755Z,8.24
2022-10-21T06:21:24.572Z,9.07
2022-10-21T06:23:55.907Z,9.49
2022-10-21T06:26:27.140Z,9.30
2022-10-21T06:28:58.908Z,8.57
2022-10-21T06:31:29.645Z,7.61
2022-10-21T06:34:00.271Z,7.68
2022-10-21T06:36:30.930Z,9.11
2022-10-21T06:39:01.637Z,8.97
2022-10-21T06:41:32.151Z,7.92
2022-10-21T06:44:02.989Z,7.45
2022-10-21T06:46:33.838Z,8.19
2022-10-21T06:49:04.539Z,8.92
2022-10-21T06:51:34.847Z,9.32
2022-10-21T06:54:05.488Z,10.03
2022-10-21T06:56:36.265Z,9.78
2022-10-21T06:59:06.906Z,8.88
2022-10-21T07:01:55.266Z,7.93
2022-10-21T07:04:28.830Z,7.60
2022-10-21T07:06:59.620Z,8.67
2022-10-21T07:09:31.093Z,9.57
2022-10-21T07:12:03.084Z,10.23
2022-10-21T07:14:33.947Z,10.59
2022-10-21T07:17:04.665Z,9.67
2022-10-21T07:19:35.682Z,8.37
2022-10-21T07:22:06.221Z,7.71
2022-10-21T07:24:37.226Z,8.48
2022-10-21T07:27:08.089Z,9.60
2022-10-21T07:29:39.113Z,10.14
2022-10-21T07:32:10.386Z,9.24
2022-10-21T07:34:41.113Z,8.16
2022-10-21T07:37:11.719Z,7.46
2022-10-21T07:39:42.306Z,7.35
2022-10-21T07:42:12.900Z,8.54
2022-10-21T07:44:43.806Z,9.84
2022-10-21T07:47:14.565Z,10.62
2022-10-21T07:49:45.298Z,11.17
2022-10-21T07:52:16.036Z,10.99
2022-10-21T07:54:47.912Z,9.93
2022-10-21T07:57:18.525Z,9.05
2022-10-21T07:59:49.058Z,8.40
2022-10-21T08:02:20.040Z,8.19
2022-10-21T08:04:52.359Z,9.34
2022-10-21T08:07:23.205Z,10.56
2022-10-21T08:09:53.724Z,11.17
2022-10-21T08:12:24.503Z,10.28
2022-10-21T08:14:55.499Z,9.20
2022-10-21T08:17:26.546Z,8.73
2022-10-21T08:19:57.181Z,9.72
2022-10-21T08:22:28.021Z,10.84
2022-10-21T08:24:58.741Z,11.40
2022-10-21T08:27:30.321Z,10.77
2022-10-21T08:30:01.044Z,9.98
2022-10-21T08:32:31.870Z,9.52
2022-10-21T08:35:02.585Z,10.49
2022-10-21T08:37:33.870Z,11.70
2022-10-21T08:40:04.916Z,11.67
2022-10-21T08:42:36.542Z,10.78
2022-10-21T08:45:08.587Z,10.10
2022-10-21T08:47:45.484Z,9.69
2022-10-21T08:50:16.802Z,9.49
2022-10-21T08:52:50.948Z,9.65
2022-10-21T08:55:19.721Z,10.94
2022-10-21T08:57:51.620Z,11.97
2022-10-21T09:00:22.931Z,12.09
2022-10-21T09:03:16.706Z,11.32
2022-10-21T09:06:19.101Z,10.68
2022-10-21T09:09:01.119Z,10.62
2022-10-21T09:11:40.653Z,11.93
2022-10-21T09:14:27.119Z,12.82
2022-10-21T09:17:01.642Z,12.11
2022-10-21T09:19:39.810Z,11.40
2022-10-21T09:22:35.845Z,10.88
2022-10-21T09:25:18.405Z,10.45
2022-10-21T09:27:56.465Z,10.21
2022-10-21T09:30:28.345Z,10.45
2022-10-21T09:33:00.201Z,11.88
2022-10-21T09:35:34.652Z,12.85
2022-10-21T09:38:09.090Z,12.36
2022-10-21T09:40:39.866Z,11.69
2022-10-21T09:43:16.856Z,11.23
2022-10-21T09:45:48.531Z,10.88
2022-10-21T09:48:26.870Z,10.60
2022-10-21T09:50:59.644Z,11.18
2022-10-21T09:53:32.617Z,12.46
2022-10-21T09:56:05.347Z,12.66
2022-10-21T09:58:47.236Z,11.94
2022-10-21T10:01:19.630Z,11.28
2022-10-21T10:03:50.587Z,10.91
2022-10-21T10:06:35.622Z,11.70
2022-10-21T10:09:13.918Z,12.63
2022-10-21T10:11:53.772Z,11.90
2022-10-21T10:14:31.702Z,11.23
2022-10-21T10:17:16.497Z,10.80
2022-10-21T10:20:07.065Z,10.77
2022-10-21T10:22:41.988Z,12.25
2022-10-21T10:25:18.534Z,13.19
2022-10-21T10:27:50.048Z,12.71
2022-10-21T10:30:21.580Z,12.11
2022-10-21T10:32:53.427Z,11.72
2022-10-21T10:35:30.919Z,11.49
2022-10-21T10:38:02.875Z,11.31
2022-10-21T10:40:39.741Z,11.24
2022-10-21T10:43:14.992Z,12.21
2022-10-21T10:45:50.451Z,13.39
2022-10-21T10:48:24.346Z,13.12
2022-10-21T10:50:54.681Z,12.59
2022-10-21T10:53:35.231Z,12.25
2022-10-21T10:56:22.260Z,11.98
2022-10-21T10:58:58.275Z,11.77
2022-10-21T11:01:31.739Z,11.92
2022-10-21T11:04:06.459Z,13.28
2022-10-21T11:06:41.239Z,14.21
2022-10-21T11:09:12.458Z,13.57
2022-10-21T11:11:45.417Z,12.89
2022-10-21T11:14:20.308Z,12.44
2022-10-21T11:17:00.907Z,12.11
2022-10-21T11:19:36.153Z,11.90
2022-10-21T11:22:12.697Z,12.70
2022-10-21T11:25:04.930Z,14.03
2022-10-21T11:27:44.820Z,14.30
2022-10-21T11:30:17.938Z,13.52
2022-10-21T11:32:55.054Z,12.85
2022-10-21T11:35:30.930Z,12.37
2022-10-21T11:38:18.802Z,12.06
2022-10-21T11:40:51.006Z,12.22
2022-10-21T11:43:36.018Z,13.42
2022-10-21T11:46:09.209Z,13.75
2022-10-21T11:48:45.232Z,13.21
2022-10-21T11:51:21.072Z,12.70
2022-10-21T11:54:02.673Z,12.39
2022-10-21T11:56:38.650Z,12.58
2022-10-21T11:59:18.708Z,13.95
2022-10-21T12:01:54.470Z,14.31
2022-10-21T12:04:29.140Z,13.83
2022-10-21T12:07:10.248Z,13.34
2022-10-21T12:09:43.422Z,12.97
2022-10-21T12:12:15.366Z,12.73
2022-10-21T12:14:48.173Z,12.61
2022-10-21T12:17:19.626Z,12.51
2022-10-21T12:19:54.955Z,12.81
2022-10-21T12:22:26.542Z,14.25
2022-10-21T12:24:59.672Z,15.13
2022-10-21T12:27:28.712Z,14.76
2022-10-21T12:30:02.221Z,14.21
2022-10-21T12:32:36.941Z,13.86
2022-10-21T12:35:12.717Z,13.60
2022-10-21T12:38:06.260Z,13.47
2022-10-21T12:40:38.516Z,13.41
2022-10-21T12:43:16.909Z,13.40
2022-10-21T12:45:47.790Z,13.39
2022-10-21T12:48:33.179Z,13.41
2022-10-21T12:51:04.383Z,13.42
2022-10-21T12:53:38.585Z,13.41
2022-10-21T12:56:11.075Z,13.41
2022-10-21T12:58:43.989Z,13.42
2022-10-21T13:01:31.704Z,13.52
2022-10-21T13:04:02.787Z,14.84
2022-10-21T13:06:53.338Z,16.09
2022-10-21T13:09:34.867Z,15.90
2022-10-21T13:12:14.324Z,15.46
2022-10-21T13:14:47.187Z,15.32
2022-10-21T13:17:31.403Z,15.41
2022-10-21T13:20:19.301Z,15.48
2022-10-21T13:22:51.030Z,15.59
2022-10-21T13:25:23.246Z,15.69
2022-10-21T13:27:55.279Z,15.66
2022-10-21T13:30:30.118Z,15.60
2022-10-21T13:33:04.506Z,15.53
2022-10-21T13:35:37.156Z,15.49
2022-10-21T13:38:19.577Z,15.40
2022-10-21T13:40:49.327Z,15.27
2022-10-21T13:43:28.969Z,15.21
2022-10-21T13:46:04.766Z,15.14
2022-10-21T13:48:38.363Z,15.07
2022-10-21T13:51:17.511Z,15.00
2022-10-21T13:53:48.659Z,14.88
2022-10-21T13:56:23.166Z,14.79
2022-10-21T13:58:54.095Z,14.71
2022-10-21T14:01:26.672Z,14.64
2022-10-21T14:03:58.307Z,14.54
2022-10-21T14:06:32.508Z,14.47
2022-10-21T14:09:05.055Z,14.42
2022-10-21T14:11:37.764Z,14.38
2022-10-21T14:14:09.719Z,14.35
2022-10-21T14:16:41.226Z,14.31
2022-10-21T14:19:15.580Z,14.27
2022-10-21T14:21:47.674Z,14.23
2022-10-21T14:24:26.275Z,14.21
2022-10-21T14:26:57.127Z,14.18
2022-10-21T14:29:29.819Z,14.16
2022-10-21T14:32:01.044Z,14.14
2022-10-21T14:34:32.807Z,14.12
2022-10-21T14:37:09.240Z,14.09
2022-10-21T14:39:42.474Z,14.06
2022-10-21T14:42:17.830Z,14.03
2022-10-21T14:44:49.425Z,14.00
2022-10-21T14:47:23.077Z,13.93
2022-10-21T14:49:54.666Z,13.88
2022-10-21T14:52:27.476Z,13.82
2022-10-21T14:54:59.893Z,13.76
2022-10-21T14:57:36.439Z,13.70
2022-10-21T15:00:10.284Z,13.64
2022-10-21T15:02:41.433Z,13.59
2022-10-21T15:05:25.713Z,13.80
2022-10-21T15:08:15.146Z,15.34
2022-10-21T15:10:45.618Z,16.31
2022-10-21T15:13:19.737Z,15.77
2022-10-21T15:15:54.072Z,15.13
2022-10-21T15:18:27.138Z,14.69
2022-10-21T15:20:58.823Z,14.36
2022-10-21T15:23:34.337Z,14.04
2022-10-21T15:26:10.327Z,13.77
2022-10-21T15:28:42.057Z,13.80
2022-10-21T15:31:16.795Z,15.01
2022-10-21T15:33:49.474Z,16.18
2022-10-21T15:36:20.281Z,16.66
2022-10-21T15:38:50.929Z,15.96
2022-10-21T15:41:22.313Z,15.18
2022-10-21T15:43:55.555Z,14.60
2022-10-21T15:46:27.210Z,14.15
2022-10-21T15:48:58.690Z,13.80
2022-10-21T15:51:29.265Z,13.53
2022-10-21T15:53:59.949Z,13.59
2022-10-21T15:56:30.856Z,14.85
2022-10-21T15:59:01.560Z,16.01
2022-10-21T16:01:32.099Z,16.49
2022-10-21T16:04:04.386Z,15.79
2022-10-21T16:06:34.943Z,14.98
2022-10-21T16:09:05.687Z,14.39
2022-10-21T16:11:41.246Z,13.95
2022-10-21T16:14:14.638Z,13.61
2022-10-21T16:16:47.578Z,13.62
2022-10-21T16:19:18.821Z,14.85
2022-10-21T16:21:49.667Z,16.00
2022-10-21T16:24:20.516Z,16.47
2022-10-21T16:26:51.744Z,15.78
2022-10-21T16:29:23.725Z,15.00
2022-10-21T16:31:55.660Z,14.43
2022-10-21T16:34:26.641Z,14.01
2022-10-21T16:36:57.365Z,13.70
2022-10-21T16:39:28.303Z,13.43
2022-10-21T16:41:58.838Z,13.50
2022-10-21T16:44:29.443Z,14.73
2022-10-21T16:47:00.280Z,15.87
2022-10-21T16:49:31.154Z,16.39
2022-10-21T16:52:02.410Z,15.69
2022-10-21T16:54:34.912Z,14.89
2022-10-21T16:57:07.110Z,14.29
2022-10-21T16:59:37.840Z,13.86
2022-10-21T17:02:15.135Z,13.78
2022-10-21T17:04:47.479Z,15.01
2022-10-21T17:07:18.220Z,16.09
2022-10-21T17:09:48.893Z,15.98
2022-10-21T17:12:19.607Z,15.04
2022-10-21T17:14:50.188Z,14.25
2022-10-21T17:17:22.493Z,14.29
2022-10-21T17:19:53.746Z,15.22
2022-10-21T17:22:24.473Z,16.10
2022-10-21T17:24:55.724Z,16.43
2022-10-21T17:27:26.960Z,15.66
2022-10-21T17:29:57.705Z,14.77
2022-10-21T17:32:28.793Z,14.04
2022-10-21T17:35:00.065Z,14.27
2022-10-21T17:37:31.020Z,15.56
2022-10-21T17:40:01.403Z,16.14
2022-10-21T17:42:32.094Z,16.23
2022-10-21T17:45:03.838Z,15.37
2022-10-21T17:47:34.881Z,14.40
2022-10-21T17:50:07.384Z,14.00
2022-10-21T17:52:38.367Z,14.89
2022-10-21T17:55:09.979Z,15.98
2022-10-21T17:57:40.475Z,16.23
2022-10-21T18:00:12.425Z,15.09
2022-10-21T18:02:43.429Z,13.98
2022-10-21T18:05:14.084Z,13.61
2022-10-21T18:07:44.789Z,14.73
2022-10-21T18:10:15.554Z,15.85
2022-10-21T18:12:46.430Z,16.04
2022-10-21T18:15:17.446Z,14.68
2022-10-21T18:17:47.956Z,14.07
2022-10-21T18:20:19.830Z,15.16
2022-10-21T18:22:53.133Z,15.90
2022-10-21T18:25:22.404Z,15.53
2022-10-21T18:27:53.155Z,14.36
2022-10-21T18:30:23.680Z,13.75
2022-10-21T18:32:54.567Z,14.62
2022-10-21T18:35:25.166Z,15.49
2022-10-21T18:37:57.306Z,16.09
2022-10-21T18:40:28.688Z,16.27
2022-10-21T18:42:59.463Z,15.38
2022-10-21T18:45:30.234Z,14.41
2022-10-21T18:48:01.262Z,13.95
2022-10-21T18:50:32.202Z,14.68
2022-10-21T18:53:03.677Z,15.63
2022-10-21T18:55:34.287Z,16.27
2022-10-21T18:58:05.345Z,16.42
2022-10-21T19:00:37.482Z,15.52
2022-10-21T19:03:08.883Z,14.59
2022-10-21T19:05:41.791Z,13.93
2022-10-21T19:08:11.010Z,13.76
2022-10-21T19:10:43.287Z,14.78
2022-10-21T19:13:13.714Z,15.86
2022-10-21T19:15:44.841Z,16.51
2022-10-21T19:18:15.502Z,16.63
2022-10-21T19:20:46.937Z,15.75
2022-10-21T19:23:17.673Z,14.89
2022-10-21T19:25:48.497Z,14.23
2022-10-21T19:28:19.025Z,14.02
2022-10-21T19:30:49.969Z,14.97
2022-10-21T19:33:20.622Z,15.93
2022-10-21T19:35:51.665Z,16.15
2022-10-21T19:38:39.758Z,15.12
2022-10-21T19:41:14.643Z,14.13
2022-10-21T19:43:45.127Z,13.84
2022-10-21T19:46:21.044Z,14.83
2022-10-21T19:48:54.089Z,15.81
2022-10-21T19:51:26.992Z,16.44
2022-10-21T19:53:57.795Z,16.60
2022-10-21T19:56:32.104Z,15.73
2022-10-21T19:59:05.689Z,14.84
2022-10-21T20:01:37.443Z,14.21
2022-10-21T20:04:08.510Z,14.05
2022-10-21T20:06:40.244Z,15.13
2022-10-21T20:09:11.769Z,16.13
2022-10-21T20:11:43.120Z,16.75
2022-10-21T20:14:14.258Z,16.62
2022-10-21T20:16:47.410Z,15.62
2022-10-21T20:19:18.037Z,14.79
2022-10-21T20:21:49.535Z,14.18
2022-10-21T20:24:20.331Z,14.00
2022-10-21T20:26:51.699Z,15.04
2022-10-21T20:29:22.293Z,15.99
2022-10-21T20:31:53.182Z,16.61
2022-10-21T20:34:23.761Z,16.77
2022-10-21T20:36:54.496Z,15.89
2022-10-21T20:39:25.614Z,14.94
2022-10-21T20:41:56.474Z,14.21
2022-10-21T20:44:27.293Z,14.06
2022-10-21T20:46:57.970Z,15.06
2022-10-21T20:49:28.597Z,15.87
2022-10-21T20:51:59.326Z,16.30
2022-10-21T20:54:30.338Z,16.49
2022-10-21T20:57:00.898Z,16.17
2022-10-21T20:59:31.586Z,15.14
2022-10-21T21:02:02.033Z,14.25
2022-10-21T21:04:32.968Z,13.93
2022-10-21T21:07:03.626Z,15.00
2022-10-21T21:10:03.740Z,15.82
2022-10-21T21:12:25.147Z,16.30
2022-10-21T21:14:56.079Z,16.32
2022-10-21T21:17:26.909Z,15.23
2022-10-21T21:19:57.656Z,14.24
2022-10-21T21:22:28.371Z,13.76
2022-10-21T21:24:58.859Z,14.62
2022-10-21T21:27:31.613Z,15.50
2022-10-21T21:32:37.475Z,16.39
2022-10-21T21:35:09.514Z,16.36
2022-10-21T21:37:40.214Z,15.33
2022-10-21T21:40:11.811Z,14.26
2022-10-21T21:42:42.455Z,13.76
2022-10-21T21:45:13.577Z,14.56
2022-10-21T21:47:44.010Z,15.25
2022-10-21T21:50:14.761Z,15.84
2022-10-21T21:52:45.543Z,15.91
2022-10-21T21:55:16.617Z,14.80
2022-10-21T21:57:47.139Z,14.01
2022-10-21T22:00:17.997Z,14.57
2022-10-21T22:02:48.531Z,15.27
2022-10-21T22:05:22.483Z,15.71
2022-10-21T22:07:57.044Z,16.03
2022-10-21T22:10:28.296Z,16.03
2022-10-21T22:12:59.013Z,15.08
2022-10-21T22:15:46.974Z,14.09
2022-10-21T22:18:19.523Z,13.69
2022-10-21T22:20:50.194Z,14.61
2022-10-21T22:23:21.721Z,15.41
2022-10-21T22:25:52.266Z,15.97
2022-10-21T22:28:23.185Z,16.00
2022-10-21T22:31:03.962Z,14.74
2022-10-21T22:33:35.384Z,13.85
2022-10-21T22:36:06.578Z,14.79
2022-10-21T22:38:37.512Z,15.80
2022-10-21T22:41:12.230Z,15.19
2022-10-21T22:43:44.264Z,14.11
2022-10-21T22:46:33.495Z,14.57
2022-10-21T22:49:05.416Z,15.01
2022-10-21T22:51:36.170Z,15.36
2022-10-21T22:54:15.123Z,15.68
2022-10-21T22:56:50.624Z,15.97
2022-10-21T22:59:21.274Z,15.97
2022-10-21T23:01:52.056Z,14.95
2022-10-21T23:04:22.787Z,14.04
2022-10-21T23:06:53.443Z,14.51
2022-10-21T23:09:24.052Z,15.10
2022-10-21T23:11:54.694Z,15.52
2022-10-21T23:14:25.520Z,15.87
2022-10-21T23:16:56.462Z,15.92
2022-10-21T23:19:27.291Z,14.90
2022-10-21T23:21:58.003Z,13.79
2022-10-21T23:24:28.653Z,13.24
2022-10-21T23:27:01.408Z,14.10
2022-10-21T23:29:32.813Z,14.97
2022-10-21T23:32:03.502Z,15.61
2022-10-21T23:34:34.292Z,15.37
2022-10-21T23:37:05.166Z,14.32
2022-10-21T23:39:36.253Z,13.58
2022-10-21T23:42:06.789Z,14.13
2022-10-21T23:44:37.724Z,14.74
2022-10-21T23:47:08.447Z,15.13
2022-10-21T23:49:39.337Z,15.43
2022-10-21T23:52:09.992Z,15.42
2022-10-21T23:54:40.623Z,14.06
2022-10-21T23:57:11.251Z,13.29
2022-10-21T23:59:42.087Z,13.79
